sensor_id;sensor_type;location;lat;lon;timestamp;pressure;altitude;pressure_sealevel;temperature;humidity
21290;BME280;10804;48.988;2.408;2023-02-16T00:01:23;101898.19;;;8.71;67.48
21290;BME280;10804;48.988;2.408;2023-02-16T00:03:52;101900.78;;;8.70;67.62
21290;BME280;10804;48.988;2.408;2023-02-16T00:06:20;101897.34;;;8.71;67.53
21290;BME280;10804;48.988;2.408;2023-02-16T00:08:50;101902.53;;;8.68;67.65
21290;BME280;10804;48.988;2.408;2023-02-16T00:11:20;101905.13;;;8.65;67.16
21290;BME280;10804;48.988;2.408;2023-02-16T00:14:08;101898.19;;;8.65;67.84
21290;BME280;10804;48.988;2.408;2023-02-16T00:16:38;101898.19;;;8.64;67.30
21290;BME280;10804;48.988;2.408;2023-02-16T00:19:24;101902.53;;;8.59;67.54
21290;BME280;10804;48.988;2.408;2023-02-16T00:21:53;101899.94;;;8.56;67.14
21290;BME280;10804;48.988;2.408;2023-02-16T00:24:21;101899.03;;;8.58;67.32
21290;BME280;10804;48.988;2.408;2023-02-16T00:26:49;101898.19;;;8.55;67.68
21290;BME280;10804;48.988;2.408;2023-02-16T00:29:19;101898.19;;;8.58;67.92
21290;BME280;10804;48.988;2.408;2023-02-16T00:31:48;101892.09;;;8.57;67.53
21290;BME280;10804;48.988;2.408;2023-02-16T00:34:28;101898.19;;;8.52;67.44
21290;BME280;10804;48.988;2.408;2023-02-16T00:36:57;101893.84;;;8.51;67.46
21290;BME280;10804;48.988;2.408;2023-02-16T00:39:25;101901.66;;;8.51;67.66
21290;BME280;10804;48.988;2.408;2023-02-16T00:41:54;101899.03;;;8.51;67.43
21290;BME280;10804;48.988;2.408;2023-02-16T00:44:28;101893.84;;;8.49;67.63
21290;BME280;10804;48.988;2.408;2023-02-16T00:47:00;101885.19;;;8.47;68.10
21290;BME280;10804;48.988;2.408;2023-02-16T00:49:29;101886.06;;;8.48;67.58
21290;BME280;10804;48.988;2.408;2023-02-16T00:51:56;101872.19;;;8.43;68.04
21290;BME280;10804;48.988;2.408;2023-02-16T00:54:24;101870.44;;;8.42;67.64
21290;BME280;10804;48.988;2.408;2023-02-16T00:56:51;101870.44;;;8.42;67.24
21290;BME280;10804;48.988;2.408;2023-02-16T00:59:20;101863.50;;;8.38;67.09
21290;BME280;10804;48.988;2.408;2023-02-16T01:01:48;101863.50;;;8.38;67.83
21290;BME280;10804;48.988;2.408;2023-02-16T01:04:22;101868.69;;;8.35;67.67
21290;BME280;10804;48.988;2.408;2023-02-16T01:06:49;101872.16;;;8.37;67.93
21290;BME280;10804;48.988;2.408;2023-02-16T01:09:34;101874.75;;;8.35;67.50
21290;BME280;10804;48.988;2.408;2023-02-16T01:12:20;101870.41;;;8.34;67.56
21290;BME280;10804;48.988;2.408;2023-02-16T01:14:50;101860.03;;;8.33;67.83
21290;BME280;10804;48.988;2.408;2023-02-16T01:17:18;101865.25;;;8.33;68.08
21290;BME280;10804;48.988;2.408;2023-02-16T01:19:47;101858.28;;;8.29;67.44
21290;BME280;10804;48.988;2.408;2023-02-16T01:22:15;101864.38;;;8.29;67.59
21290;BME280;10804;48.988;2.408;2023-02-16T01:24:43;101860.03;;;8.27;67.62
21290;BME280;10804;48.988;2.408;2023-02-16T01:27:11;101868.69;;;8.26;67.37
21290;BME280;10804;48.988;2.408;2023-02-16T01:29:39;101868.69;;;8.26;67.56
21290;BME280;10804;48.988;2.408;2023-02-16T01:32:09;101869.56;;;8.25;67.43
21290;BME280;10804;48.988;2.408;2023-02-16T01:34:37;101869.53;;;8.23;67.90
21290;BME280;10804;48.988;2.408;2023-02-16T01:37:12;101861.75;;;8.22;67.14
21290;BME280;10804;48.988;2.408;2023-02-16T01:39:42;101860.88;;;8.20;67.70
21290;BME280;10804;48.988;2.408;2023-02-16T01:42:17;101861.75;;;8.19;67.76
21290;BME280;10804;48.988;2.408;2023-02-16T01:44:51;101857.41;;;8.19;67.48
21290;BME280;10804;48.988;2.408;2023-02-16T01:47:29;101857.41;;;8.19;67.39
21290;BME280;10804;48.988;2.408;2023-02-16T01:49:59;101852.19;;;8.18;67.70
21290;BME280;10804;48.988;2.408;2023-02-16T01:52:32;101836.59;;;8.16;67.55
21290;BME280;10804;48.988;2.408;2023-02-16T01:55:09;101839.16;;;8.15;67.51
21290;BME280;10804;48.988;2.408;2023-02-16T01:57:42;101827.94;;;8.14;67.37
21290;BME280;10804;48.988;2.408;2023-02-16T02:00:21;101832.28;;;8.17;67.52
21290;BME280;10804;48.988;2.408;2023-02-16T02:05:30;101827.06;;;8.15;67.78
21290;BME280;10804;48.988;2.408;2023-02-16T02:08:19;101823.56;;;8.15;67.77
21290;BME280;10804;48.988;2.408;2023-02-16T02:10:55;101823.59;;;8.12;67.62
21290;BME280;10804;48.988;2.408;2023-02-16T02:13:27;101825.31;;;8.13;67.60
21290;BME280;10804;48.988;2.408;2023-02-16T02:15:56;101825.31;;;8.13;67.71
21290;BME280;10804;48.988;2.408;2023-02-16T02:18:25;101820.97;;;8.15;67.51
21290;BME280;10804;48.988;2.408;2023-02-16T02:21:10;101807.13;;;8.11;67.28
21290;BME280;10804;48.988;2.408;2023-02-16T02:24:20;101808.00;;;8.10;67.59
21290;BME280;10804;48.988;2.408;2023-02-16T02:27:12;101809.72;;;8.11;67.16
21290;BME280;10804;48.988;2.408;2023-02-16T02:29:55;101811.47;;;8.11;67.36
21290;BME280;10804;48.988;2.408;2023-02-16T02:32:33;101804.53;;;8.10;66.86
21290;BME280;10804;48.988;2.408;2023-02-16T02:35:16;101799.31;;;8.07;67.46
21290;BME280;10804;48.988;2.408;2023-02-16T02:37:52;101804.50;;;8.07;67.44
21290;BME280;10804;48.988;2.408;2023-02-16T02:40:31;101801.06;;;8.06;67.23
21290;BME280;10804;48.988;2.408;2023-02-16T02:43:10;101802.81;;;8.07;67.64
21290;BME280;10804;48.988;2.408;2023-02-16T02:45:46;101817.50;;;8.07;67.65
21290;BME280;10804;48.988;2.408;2023-02-16T02:48:14;101807.97;;;8.06;67.61
21290;BME280;10804;48.988;2.408;2023-02-16T02:50:47;101802.78;;;8.06;67.14
21290;BME280;10804;48.988;2.408;2023-02-16T02:53:36;101797.59;;;8.06;67.29
21290;BME280;10804;48.988;2.408;2023-02-16T02:56:07;101798.44;;;8.03;67.78
21290;BME280;10804;48.988;2.408;2023-02-16T02:58:57;101799.31;;;8.02;67.54
21290;BME280;10804;48.988;2.408;2023-02-16T03:01:49;101797.56;;;8.00;67.25
21290;BME280;10804;48.988;2.408;2023-02-16T03:04:20;101797.56;;;8.00;67.82
21290;BME280;10804;48.988;2.408;2023-02-16T03:06:51;101793.22;;;7.97;67.57
21290;BME280;10804;48.988;2.408;2023-02-16T03:09:19;101792.38;;;7.97;67.40
21290;BME280;10804;48.988;2.408;2023-02-16T03:11:49;101788.91;;;7.98;68.00
21290;BME280;10804;48.988;2.408;2023-02-16T03:14:38;101788.03;;;7.97;67.61
21290;BME280;10804;48.988;2.408;2023-02-16T03:17:10;101788.06;;;7.96;67.20
21290;BME280;10804;48.988;2.408;2023-02-16T03:19:57;101788.06;;;7.94;67.65
21290;BME280;10804;48.988;2.408;2023-02-16T03:22:44;101783.72;;;7.96;67.43
21290;BME280;10804;48.988;2.408;2023-02-16T03:25:31;101784.59;;;7.92;67.56
21290;BME280;10804;48.988;2.408;2023-02-16T03:28:19;101780.25;;;7.91;67.72
21290;BME280;10804;48.988;2.408;2023-02-16T03:31:09;101785.44;;;7.93;67.52
21290;BME280;10804;48.988;2.408;2023-02-16T03:33:38;101778.50;;;7.92;67.58
21290;BME280;10804;48.988;2.408;2023-02-16T03:36:06;101787.19;;;7.91;67.77
21290;BME280;10804;48.988;2.408;2023-02-16T03:38:34;101786.31;;;7.87;67.56
21290;BME280;10804;48.988;2.408;2023-02-16T03:41:03;101793.25;;;7.90;67.40
21290;BME280;10804;48.988;2.408;2023-02-16T03:43:30;101788.06;;;7.91;67.78
21290;BME280;10804;48.988;2.408;2023-02-16T03:45:58;101790.66;;;7.91;67.61
21290;BME280;10804;48.988;2.408;2023-02-16T03:48:26;101790.63;;;7.90;67.63
21290;BME280;10804;48.988;2.408;2023-02-16T03:50:53;101792.38;;;7.88;67.98
21290;BME280;10804;48.988;2.408;2023-02-16T03:53:21;101797.56;;;7.91;67.80
21290;BME280;10804;48.988;2.408;2023-02-16T03:55:48;101801.03;;;7.90;67.30
21290;BME280;10804;48.988;2.408;2023-02-16T03:58:18;101796.69;;;7.92;67.09
21290;BME280;10804;48.988;2.408;2023-02-16T04:00:46;101796.69;;;7.89;67.31
21290;BME280;10804;48.988;2.408;2023-02-16T04:03:14;101781.13;;;7.89;67.41
21290;BME280;10804;48.988;2.408;2023-02-16T04:05:43;101782.84;;;7.88;67.58
21290;BME280;10804;48.988;2.408;2023-02-16T04:08:11;101794.13;;;7.90;67.63
21290;BME280;10804;48.988;2.408;2023-02-16T04:10:39;101781.97;;;7.89;67.65
21290;BME280;10804;48.988;2.408;2023-02-16T04:13:06;101776.78;;;7.88;67.38
21290;BME280;10804;48.988;2.408;2023-02-16T04:15:33;101784.59;;;7.88;67.36
21290;BME280;10804;48.988;2.408;2023-02-16T04:18:01;101759.44;;;7.79;67.08
21290;BME280;10804;48.988;2.408;2023-02-16T04:20:30;101786.31;;;7.87;67.47
21290;BME280;10804;48.988;2.408;2023-02-16T04:22:59;101787.16;;;7.86;67.30
21290;BME280;10804;48.988;2.408;2023-02-16T04:25:27;101793.22;;;7.88;67.25
21290;BME280;10804;48.988;2.408;2023-02-16T04:27:54;101790.66;;;7.87;67.65
21290;BME280;10804;48.988;2.408;2023-02-16T04:30:24;101785.44;;;7.87;67.70
21290;BME280;10804;48.988;2.408;2023-02-16T04:32:52;101777.66;;;7.87;67.16
21290;BME280;10804;48.988;2.408;2023-02-16T04:35:20;101779.38;;;7.85;67.13
21290;BME280;10804;48.988;2.408;2023-02-16T04:37:47;101783.69;;;7.86;67.06
21290;BME280;10804;48.988;2.408;2023-02-16T04:40:17;101779.38;;;7.86;67.22
21290;BME280;10804;48.988;2.408;2023-02-16T04:42:45;101780.22;;;7.84;67.28
21290;BME280;10804;48.988;2.408;2023-02-16T04:45:12;101778.50;;;7.83;67.67
21290;BME280;10804;48.988;2.408;2023-02-16T04:47:40;101776.78;;;7.82;67.46
21290;BME280;10804;48.988;2.408;2023-02-16T04:50:08;101781.09;;;7.84;66.88
21290;BME280;10804;48.988;2.408;2023-02-16T04:52:36;101781.97;;;7.83;66.99
21290;BME280;10804;48.988;2.408;2023-02-16T04:55:03;101772.44;;;7.81;67.64
21290;BME280;10804;48.988;2.408;2023-02-16T04:57:33;101787.16;;;7.82;67.35
21290;BME280;10804;48.988;2.408;2023-02-16T05:00:00;101796.66;;;7.81;67.20
21290;BME280;10804;48.988;2.408;2023-02-16T05:02:31;101787.16;;;7.79;67.40
21290;BME280;10804;48.988;2.408;2023-02-16T05:04:58;101786.28;;;7.78;67.65
21290;BME280;10804;48.988;2.408;2023-02-16T05:07:26;101794.06;;;7.77;66.98
21290;BME280;10804;48.988;2.408;2023-02-16T05:09:53;101796.66;;;7.77;67.45
21290;BME280;10804;48.988;2.408;2023-02-16T05:12:20;101794.06;;;7.75;67.70
21290;BME280;10804;48.988;2.408;2023-02-16T05:15:07;101794.94;;;7.76;67.26
21290;BME280;10804;48.988;2.408;2023-02-16T05:17:34;101795.78;;;7.75;67.55
21290;BME280;10804;48.988;2.408;2023-02-16T05:20:02;101797.53;;;7.73;67.29
21290;BME280;10804;48.988;2.408;2023-02-16T05:22:30;101799.25;;;7.74;67.59
21290;BME280;10804;48.988;2.408;2023-02-16T05:24:58;101785.41;;;7.72;67.15
21290;BME280;10804;48.988;2.408;2023-02-16T05:27:27;101791.47;;;7.74;67.47
21290;BME280;10804;48.988;2.408;2023-02-16T05:29:54;101786.28;;;7.74;67.38
21290;BME280;10804;48.988;2.408;2023-02-16T05:32:24;101794.94;;;7.73;67.15
21290;BME280;10804;48.988;2.408;2023-02-16T05:34:51;101788.88;;;7.74;67.48
21290;BME280;10804;48.988;2.408;2023-02-16T05:37:19;101777.59;;;7.73;67.44
21290;BME280;10804;48.988;2.408;2023-02-16T05:39:46;101782.81;;;7.72;67.07
21290;BME280;10804;48.988;2.408;2023-02-16T05:42:13;101778.50;;;7.71;67.47
21290;BME280;10804;48.988;2.408;2023-02-16T05:44:40;101788.88;;;7.71;66.95
21290;BME280;10804;48.988;2.408;2023-02-16T05:47:08;101783.66;;;7.72;67.38
21290;BME280;10804;48.988;2.408;2023-02-16T05:49:37;101789.72;;;7.71;67.59
21290;BME280;10804;48.988;2.408;2023-02-16T05:52:04;101777.63;;;7.70;67.35
21290;BME280;10804;48.988;2.408;2023-02-16T05:54:32;101768.94;;;7.70;67.26
21290;BME280;10804;48.988;2.408;2023-02-16T05:56:59;101783.66;;;7.69;67.66
21290;BME280;10804;48.988;2.408;2023-02-16T05:59:26;101783.66;;;7.68;67.01
21290;BME280;10804;48.988;2.408;2023-02-16T06:01:54;101776.72;;;7.67;67.36
21290;BME280;10804;48.988;2.408;2023-02-16T06:04:21;101781.94;;;7.68;67.05
21290;BME280;10804;48.988;2.408;2023-02-16T06:06:50;101784.50;;;7.70;67.65
21290;BME280;10804;48.988;2.408;2023-02-16T06:09:17;101787.13;;;7.68;67.14
21290;BME280;10804;48.988;2.408;2023-02-16T06:11:44;101781.03;;;7.66;66.81
21290;BME280;10804;48.988;2.408;2023-02-16T06:14:14;101790.56;;;7.64;67.23
21290;BME280;10804;48.988;2.408;2023-02-16T06:16:43;101789.72;;;7.68;67.39
21290;BME280;10804;48.988;2.408;2023-02-16T06:19:11;101793.19;;;7.66;67.07
21290;BME280;10804;48.988;2.408;2023-02-16T06:21:39;101791.44;;;7.66;67.26
21290;BME280;10804;48.988;2.408;2023-02-16T06:24:10;101787.13;;;7.67;67.50
21290;BME280;10804;48.988;2.408;2023-02-16T06:26:37;101788.84;;;7.65;67.48
21290;BME280;10804;48.988;2.408;2023-02-16T06:29:05;101794.03;;;7.68;67.16
21290;BME280;10804;48.988;2.408;2023-02-16T06:31:33;101787.13;;;7.67;67.00
21290;BME280;10804;48.988;2.408;2023-02-16T06:34:00;101801.81;;;7.66;67.65
21290;BME280;10804;48.988;2.408;2023-02-16T06:36:28;101804.44;;;7.65;67.71
21290;BME280;10804;48.988;2.408;2023-02-16T06:38:56;101812.22;;;7.65;67.32
21290;BME280;10804;48.988;2.408;2023-02-16T06:41:24;101811.34;;;7.66;67.08
21290;BME280;10804;48.988;2.408;2023-02-16T06:44:02;101812.22;;;7.68;67.05
21290;BME280;10804;48.988;2.408;2023-02-16T06:46:30;101822.63;;;7.69;66.98
21290;BME280;10804;48.988;2.408;2023-02-16T06:48:58;101826.91;;;7.69;67.21
21290;BME280;10804;48.988;2.408;2023-02-16T06:51:25;101826.91;;;7.69;67.12
21290;BME280;10804;48.988;2.408;2023-02-16T06:53:52;101835.59;;;7.71;67.41
21290;BME280;10804;48.988;2.408;2023-02-16T06:56:20;101840.81;;;7.71;67.27
21290;BME280;10804;48.988;2.408;2023-02-16T06:58:49;101842.53;;;7.72;67.24
21290;BME280;10804;48.988;2.408;2023-02-16T07:01:17;101846.00;;;7.71;66.98
21290;BME280;10804;48.988;2.408;2023-02-16T07:03:48;101851.19;;;7.71;67.21
21290;BME280;10804;48.988;2.408;2023-02-16T07:06:16;101851.19;;;7.71;67.63
21290;BME280;10804;48.988;2.408;2023-02-16T07:08:44;101850.31;;;7.73;67.34
21290;BME280;10804;48.988;2.408;2023-02-16T07:11:12;101852.91;;;7.72;67.07
21290;BME280;10804;48.988;2.408;2023-02-16T07:13:39;101851.19;;;7.74;66.99
21290;BME280;10804;48.988;2.408;2023-02-16T07:16:08;101845.97;;;7.72;67.14
21290;BME280;10804;48.988;2.408;2023-02-16T07:18:35;101854.63;;;7.74;67.26
21290;BME280;10804;48.988;2.408;2023-02-16T07:21:03;101851.19;;;7.74;66.57
21290;BME280;10804;48.988;2.408;2023-02-16T07:23:31;101851.19;;;7.77;66.75
21290;BME280;10804;48.988;2.408;2023-02-16T07:25:59;101858.09;;;7.75;66.90
21290;BME280;10804;48.988;2.408;2023-02-16T07:28:26;101870.22;;;7.76;66.76
21290;BME280;10804;48.988;2.408;2023-02-16T07:30:53;101859.84;;;7.76;66.81
21290;BME280;10804;48.988;2.408;2023-02-16T07:33:22;101862.44;;;7.77;66.90
21290;BME280;10804;48.988;2.408;2023-02-16T07:35:49;101857.25;;;7.76;66.74
21290;BME280;10804;48.988;2.408;2023-02-16T07:38:16;101858.09;;;7.78;66.74
21290;BME280;10804;48.988;2.408;2023-02-16T07:40:44;101865.91;;;7.78;66.63
21290;BME280;10804;48.988;2.408;2023-02-16T07:43:11;101864.19;;;7.78;66.76
21290;BME280;10804;48.988;2.408;2023-02-16T07:45:38;101862.47;;;7.79;67.15
21290;BME280;10804;48.988;2.408;2023-02-16T07:48:07;101863.31;;;7.78;66.58
21290;BME280;10804;48.988;2.408;2023-02-16T07:50:36;101855.50;;;7.78;66.37
21290;BME280;10804;48.988;2.408;2023-02-16T07:53:03;101859.88;;;7.79;66.48
21290;BME280;10804;48.988;2.408;2023-02-16T07:55:30;101857.25;;;7.80;66.75
21290;BME280;10804;48.988;2.408;2023-02-16T07:57:58;101865.06;;;7.82;66.85
21290;BME280;10804;48.988;2.408;2023-02-16T08:00:25;101866.78;;;7.83;67.08
21290;BME280;10804;48.988;2.408;2023-02-16T08:02:53;101865.94;;;7.82;66.72
21290;BME280;10804;48.988;2.408;2023-02-16T08:05:20;101872.88;;;7.86;66.68
21290;BME280;10804;48.988;2.408;2023-02-16T08:07:49;101879.78;;;7.86;66.35
21290;BME280;10804;48.988;2.408;2023-02-16T08:10:16;101875.47;;;7.86;66.82
21290;BME280;10804;48.988;2.408;2023-02-16T08:12:44;101880.69;;;7.88;66.96
21290;BME280;10804;48.988;2.408;2023-02-16T08:15:11;101873.75;;;7.87;66.36
21290;BME280;10804;48.988;2.408;2023-02-16T08:17:38;101890.19;;;7.89;66.47
21290;BME280;10804;48.988;2.408;2023-02-16T08:20:07;101885.00;;;7.90;67.11
21290;BME280;10804;48.988;2.408;2023-02-16T08:22:35;101888.47;;;7.92;66.90
21290;BME280;10804;48.988;2.408;2023-02-16T08:25:04;101878.09;;;7.92;66.62
21290;BME280;10804;48.988;2.408;2023-02-16T08:27:32;101877.22;;;7.93;66.41
21290;BME280;10804;48.988;2.408;2023-02-16T08:30:00;101876.34;;;7.94;66.93
21290;BME280;10804;48.988;2.408;2023-02-16T08:32:28;101870.31;;;7.97;66.45
21290;BME280;10804;48.988;2.408;2023-02-16T08:34:55;101856.44;;;7.98;66.66
21290;BME280;10804;48.988;2.408;2023-02-16T08:37:22;101853.00;;;7.99;66.29
21290;BME280;10804;48.988;2.408;2023-02-16T08:39:49;101856.47;;;8.02;66.43
21290;BME280;10804;48.988;2.408;2023-02-16T08:42:18;101850.41;;;8.02;66.84
21290;BME280;10804;48.988;2.408;2023-02-16T08:44:46;101854.75;;;8.06;66.47
21290;BME280;10804;48.988;2.408;2023-02-16T08:47:13;101856.47;;;8.07;66.70
21290;BME280;10804;48.988;2.408;2023-02-16T08:49:42;101859.09;;;8.10;66.21
21290;BME280;10804;48.988;2.408;2023-02-16T08:52:09;101859.06;;;8.11;66.10
21290;BME280;10804;48.988;2.408;2023-02-16T08:54:38;101859.94;;;8.15;65.83
21290;BME280;10804;48.988;2.408;2023-02-16T08:57:06;101866.03;;;8.17;66.36
21290;BME280;10804;48.988;2.408;2023-02-16T08:59:34;101863.44;;;8.18;66.00
21290;BME280;10804;48.988;2.408;2023-02-16T09:02:02;101872.16;;;8.20;66.01
21290;BME280;10804;48.988;2.408;2023-02-16T09:04:29;101882.53;;;8.22;66.04
21290;BME280;10804;48.988;2.408;2023-02-16T09:06:57;101878.22;;;8.22;66.33
21290;BME280;10804;48.988;2.408;2023-02-16T09:09:24;101885.16;;;8.25;66.61
21290;BME280;10804;48.988;2.408;2023-02-16T09:11:52;101890.34;;;8.23;66.16
21290;BME280;10804;48.988;2.408;2023-02-16T09:14:20;101892.94;;;8.25;66.04
21290;BME280;10804;48.988;2.408;2023-02-16T09:16:49;101896.38;;;8.25;66.15
21290;BME280;10804;48.988;2.408;2023-02-16T09:19:19;101886.00;;;8.27;66.29
21290;BME280;10804;48.988;2.408;2023-02-16T09:21:47;101892.06;;;8.27;66.17
21290;BME280;10804;48.988;2.408;2023-02-16T09:24:15;101893.81;;;8.28;66.02
21290;BME280;10804;48.988;2.408;2023-02-16T09:26:42;101892.09;;;8.32;66.54
21290;BME280;10804;48.988;2.408;2023-02-16T09:29:10;101898.16;;;8.32;66.32
21290;BME280;10804;48.988;2.408;2023-02-16T09:31:39;101891.22;;;8.33;66.36
21290;BME280;10804;48.988;2.408;2023-02-16T09:34:15;101892.09;;;8.36;66.12
21290;BME280;10804;48.988;2.408;2023-02-16T09:36:44;101886.88;;;8.38;66.14
21290;BME280;10804;48.988;2.408;2023-02-16T09:39:12;101892.97;;;8.40;66.23
21290;BME280;10804;48.988;2.408;2023-02-16T09:41:57;101892.97;;;8.43;66.29
21290;BME280;10804;48.988;2.408;2023-02-16T09:44:35;101899.03;;;8.46;65.94
21290;BME280;10804;48.988;2.408;2023-02-16T09:47:10;101901.63;;;8.49;65.95
21290;BME280;10804;48.988;2.408;2023-02-16T09:49:43;101892.97;;;8.52;65.87
21290;BME280;10804;48.988;2.408;2023-02-16T09:52:18;101885.19;;;8.53;65.91
21290;BME280;10804;48.988;2.408;2023-02-16T09:54:50;101893.00;;;8.58;66.43
21290;BME280;10804;48.988;2.408;2023-02-16T09:57:22;101897.31;;;8.59;65.78
21290;BME280;10804;48.988;2.408;2023-02-16T09:59:59;101907.72;;;8.60;65.77
21290;BME280;10804;48.988;2.408;2023-02-16T10:02:37;101912.94;;;8.63;65.96
21290;BME280;10804;48.988;2.408;2023-02-16T10:05:15;101904.25;;;8.64;65.68
21290;BME280;10804;48.988;2.408;2023-02-16T10:07:54;101901.69;;;8.67;66.14
21290;BME280;10804;48.988;2.408;2023-02-16T10:10:24;101898.19;;;8.70;65.77
21290;BME280;10804;48.988;2.408;2023-02-16T10:12:55;101894.75;;;8.71;65.83
21290;BME280;10804;48.988;2.408;2023-02-16T10:15:28;101899.06;;;8.75;65.37
21290;BME280;10804;48.988;2.408;2023-02-16T10:17:58;101900.81;;;8.79;65.35
21290;BME280;10804;48.988;2.408;2023-02-16T10:20:30;101909.47;;;8.81;65.48
21290;BME280;10804;48.988;2.408;2023-02-16T10:23:06;101908.63;;;8.83;65.45
21290;BME280;10804;48.988;2.408;2023-02-16T10:25:40;101907.75;;;8.86;65.67
21290;BME280;10804;48.988;2.408;2023-02-16T10:28:14;101897.31;;;8.87;65.57
21290;BME280;10804;48.988;2.408;2023-02-16T10:30:48;101905.13;;;8.89;65.26
21290;BME280;10804;48.988;2.408;2023-02-16T10:33:34;101905.13;;;8.92;65.26
21290;BME280;10804;48.988;2.408;2023-02-16T10:36:14;101906.00;;;8.92;65.21
21290;BME280;10804;48.988;2.408;2023-02-16T10:38:50;101904.28;;;8.96;64.88
21290;BME280;10804;48.988;2.408;2023-02-16T10:41:28;101899.09;;;8.97;65.11
21290;BME280;10804;48.988;2.408;2023-02-16T10:44:02;101896.47;;;9.00;65.50
21290;BME280;10804;48.988;2.408;2023-02-16T10:46:37;101907.72;;;9.02;65.56
21290;BME280;10804;48.988;2.408;2023-02-16T10:49:08;101899.94;;;9.04;64.95
21290;BME280;10804;48.988;2.408;2023-02-16T10:51:40;101892.97;;;9.06;65.52
21290;BME280;10804;48.988;2.408;2023-02-16T10:54:13;101909.47;;;9.09;65.56
21290;BME280;10804;48.988;2.408;2023-02-16T10:56:47;101907.72;;;9.11;65.65
21290;BME280;10804;48.988;2.408;2023-02-16T10:59:20;101909.44;;;9.14;65.31
21290;BME280;10804;48.988;2.408;2023-02-16T11:01:49;101910.31;;;9.17;65.70
21290;BME280;10804;48.988;2.408;2023-02-16T11:04:32;101904.25;;;9.20;65.86
21290;BME280;10804;48.988;2.408;2023-02-16T11:07:05;101914.66;;;9.24;65.56
21290;BME280;10804;48.988;2.408;2023-02-16T11:09:34;101910.31;;;9.26;65.92
21290;BME280;10804;48.988;2.408;2023-02-16T11:12:02;101902.50;;;9.29;65.93
21290;BME280;10804;48.988;2.408;2023-02-16T11:14:40;101895.56;;;9.33;65.74
21290;BME280;10804;48.988;2.408;2023-02-16T11:17:14;101893.81;;;9.36;65.47
21290;BME280;10804;48.988;2.408;2023-02-16T11:19:47;101886.00;;;9.41;65.57
21290;BME280;10804;48.988;2.408;2023-02-16T11:22:31;101877.31;;;9.48;65.46
21290;BME280;10804;48.988;2.408;2023-02-16T11:25:18;101879.84;;;9.54;66.06
21290;BME280;10804;48.988;2.408;2023-02-16T11:27:52;101873.75;;;9.61;65.32
21290;BME280;10804;48.988;2.408;2023-02-16T11:30:27;101878.97;;;9.68;65.71
21290;BME280;10804;48.988;2.408;2023-02-16T11:32:58;101872.81;;;9.77;65.45
21290;BME280;10804;48.988;2.408;2023-02-16T11:35:26;101866.72;;;9.84;65.33
21290;BME280;10804;48.988;2.408;2023-02-16T11:37:58;101864.09;;;9.93;65.58
21290;BME280;10804;48.988;2.408;2023-02-16T11:40:28;101866.66;;;9.99;65.29
21290;BME280;10804;48.988;2.408;2023-02-16T11:42:59;101871.00;;;10.07;65.15
21290;BME280;10804;48.988;2.408;2023-02-16T11:45:29;101883.13;;;10.16;64.96
21290;BME280;10804;48.988;2.408;2023-02-16T11:47:59;101861.34;;;10.23;64.93
21290;BME280;10804;48.988;2.408;2023-02-16T11:50:28;101857.81;;;10.30;64.64
21290;BME280;10804;48.988;2.408;2023-02-16T11:53:13;101855.16;;;10.39;64.79
21290;BME280;10804;48.988;2.408;2023-02-16T11:55:43;101849.03;;;10.46;64.36
21290;BME280;10804;48.988;2.408;2023-02-16T11:58:17;101848.97;;;10.55;64.34
21290;BME280;10804;48.988;2.408;2023-02-16T12:00:57;101841.94;;;10.63;64.23
21290;BME280;10804;48.988;2.408;2023-02-16T12:03:47;101847.91;;;10.77;63.91
21290;BME280;10804;48.988;2.408;2023-02-16T12:06:32;101839.94;;;10.89;63.63
21290;BME280;10804;48.988;2.408;2023-02-16T12:09:17;101849.41;;;11.03;63.40
21290;BME280;10804;48.988;2.408;2023-02-16T12:11:56;101837.97;;;11.13;63.09
21290;BME280;10804;48.988;2.408;2023-02-16T12:14:41;101839.59;;;11.25;63.10
21290;BME280;10804;48.988;2.408;2023-02-16T12:17:28;101837.72;;;11.36;63.03
21290;BME280;10804;48.988;2.408;2023-02-16T12:20:05;101835.88;;;11.47;62.37
21290;BME280;10804;48.988;2.408;2023-02-16T12:22:45;101840.09;;;11.56;62.16
21290;BME280;10804;48.988;2.408;2023-02-16T12:25:24;101837.38;;;11.68;62.55
21290;BME280;10804;48.988;2.408;2023-02-16T12:27:58;101832.88;;;11.78;62.03
21290;BME280;10804;48.988;2.408;2023-02-16T12:30:37;101836.22;;;11.87;61.89
21290;BME280;10804;48.988;2.408;2023-02-16T12:33:25;101834.31;;;12.00;62.31
21290;BME280;10804;48.988;2.408;2023-02-16T12:36:18;101827.19;;;12.11;62.18
21290;BME280;10804;48.988;2.408;2023-02-16T12:38:57;101806.06;;;12.24;61.38
21290;BME280;10804;48.988;2.408;2023-02-16T12:41:37;101811.13;;;12.36;61.58
21290;BME280;10804;48.988;2.408;2023-02-16T12:44:14;101814.47;;;12.44;60.81
21290;BME280;10804;48.988;2.408;2023-02-16T12:46:43;101816.94;;;12.53;60.27
21290;BME280;10804;48.988;2.408;2023-02-16T12:49:15;101806.31;;;12.62;60.43
21290;BME280;10804;48.988;2.408;2023-02-16T12:51:48;101808.75;;;12.73;60.31
21290;BME280;10804;48.988;2.408;2023-02-16T12:54:20;101806.00;;;12.80;60.05
21290;BME280;10804;48.988;2.408;2023-02-16T12:56:53;101804.16;;;12.85;59.90
21290;BME280;10804;48.988;2.408;2023-02-16T12:59:23;101811.88;;;12.94;60.00
21290;BME280;10804;48.988;2.408;2023-02-16T13:01:54;101788.13;;;13.03;59.51
21290;BME280;10804;48.988;2.408;2023-02-16T13:04:25;101787.13;;;13.12;59.40
21290;BME280;10804;48.988;2.408;2023-02-16T13:07:01;101781.72;;;13.19;59.58
21290;BME280;10804;48.988;2.408;2023-02-16T13:09:36;101785.94;;;13.26;59.12
21290;BME280;10804;48.988;2.408;2023-02-16T13:12:11;101784.03;;;13.34;58.93
21290;BME280;10804;48.988;2.408;2023-02-16T13:14:52;101785.63;;;13.43;59.12
21290;BME280;10804;48.988;2.408;2023-02-16T13:17:29;101789.00;;;13.48;58.88
21290;BME280;10804;48.988;2.408;2023-02-16T13:19:57;101787.94;;;13.56;58.56
21290;BME280;10804;48.988;2.408;2023-02-16T13:22:35;101791.31;;;13.63;58.86
21290;BME280;10804;48.988;2.408;2023-02-16T13:25:28;101789.41;;;13.69;58.97
21290;BME280;10804;48.988;2.408;2023-02-16T13:28:06;101777.09;;;13.74;58.33